sensor_id;sensor_type;location;lat;lon;timestamp;pressure;altitude;pressure_sealevel;temperature;humidity
58018;BME280;43810;50.860;19.226;2023-05-02T00:01:58;98524.78;;;9.32;66.37
58018;BME280;43810;50.860;19.226;2023-05-02T00:04:23;98526.97;;;9.21;66.33
58018;BME280;43810;50.860;19.226;2023-05-02T00:06:51;98525.16;;;9.13;66.60
58018;BME280;43810;50.860;19.226;2023-05-02T00:09:17;98522.41;;;9.01;67.14
58018;BME280;43810;50.860;19.226;2023-05-02T00:11:43;98519.34;;;8.90;67.14
58018;BME280;43810;50.860;19.226;2023-05-02T00:14:09;98517.47;;;8.91;67.31
58018;BME280;43810;50.860;19.226;2023-05-02T00:16:35;98523.22;;;8.93;66.77
58018;BME280;43810;50.860;19.226;2023-05-02T00:19:01;98518.19;;;9.00;67.00
58018;BME280;43810;50.860;19.226;2023-05-02T00:21:28;98515.19;;;9.10;66.54
58018;BME280;43810;50.860;19.226;2023-05-02T00:23:54;98520.78;;;9.17;66.28
58018;BME280;43810;50.860;19.226;2023-05-02T00:26:22;98519.53;;;9.15;66.37
58018;BME280;43810;50.860;19.226;2023-05-02T00:28:48;98507.25;;;9.10;66.78
58018;BME280;43810;50.860;19.226;2023-05-02T00:31:14;98516.94;;;9.06;67.04
58018;BME280;43810;50.860;19.226;2023-05-02T00:33:41;98518.50;;;8.98;66.88
58018;BME280;43810;50.860;19.226;2023-05-02T00:36:14;98506.03;;;8.99;67.24
58018;BME280;43810;50.860;19.226;2023-05-02T00:38:40;98513.88;;;8.87;67.55
58018;BME280;43810;50.860;19.226;2023-05-02T00:41:06;98504.44;;;8.77;67.87
58018;BME280;43810;50.860;19.226;2023-05-02T00:43:31;98502.75;;;8.73;68.04
58018;BME280;43810;50.860;19.226;2023-05-02T00:45:57;98506.03;;;8.70;68.03
58018;BME280;43810;50.860;19.226;2023-05-02T00:48:24;98501.19;;;8.72;68.26
58018;BME280;43810;50.860;19.226;2023-05-02T00:50:50;98502.09;;;8.76;67.66
58018;BME280;43810;50.860;19.226;2023-05-02T00:53:16;98505.03;;;8.83;67.96
58018;BME280;43810;50.860;19.226;2023-05-02T00:55:42;98496.28;;;8.91;67.71
58018;BME280;43810;50.860;19.226;2023-05-02T00:58:13;98505.16;;;8.95;67.60
58018;BME280;43810;50.860;19.226;2023-05-02T01:03:16;98500.78;;;8.90;68.10
58018;BME280;43810;50.860;19.226;2023-05-02T01:09:13;98504.81;;;8.58;68.96
58018;BME280;43810;50.860;19.226;2023-05-02T01:14:17;98488.22;;;8.32;70.01
58018;BME280;43810;50.860;19.226;2023-05-02T01:16:45;98503.63;;;8.21;70.64
58018;BME280;43810;50.860;19.226;2023-05-02T01:19:23;98496.50;;;8.05;71.49
58018;BME280;43810;50.860;19.226;2023-05-02T01:21:51;98503.34;;;7.97;71.86
58018;BME280;43810;50.860;19.226;2023-05-02T01:24:24;98500.25;;;7.86;71.94
58018;BME280;43810;50.860;19.226;2023-05-02T01:26:59;98494.97;;;7.78;72.38
58018;BME280;43810;50.860;19.226;2023-05-02T01:29:28;98494.19;;;7.69;73.32
58018;BME280;43810;50.860;19.226;2023-05-02T01:31:56;98495.09;;;7.64;73.40
58018;BME280;43810;50.860;19.226;2023-05-02T01:34:24;98505.22;;;7.62;73.61
58018;BME280;43810;50.860;19.226;2023-05-02T01:36:53;98500.41;;;7.64;73.57
58018;BME280;43810;50.860;19.226;2023-05-02T01:39:23;98496.38;;;7.67;73.61
58018;BME280;43810;50.860;19.226;2023-05-02T01:41:51;98492.16;;;7.74;73.48
58018;BME280;43810;50.860;19.226;2023-05-02T01:44:20;98498.69;;;7.77;73.29
58018;BME280;43810;50.860;19.226;2023-05-02T01:46:48;98489.38;;;7.79;72.91
58018;BME280;43810;50.860;19.226;2023-05-02T01:49:17;98486.72;;;7.79;73.06
58018;BME280;43810;50.860;19.226;2023-05-02T01:51:47;98486.84;;;7.83;72.72
58018;BME280;43810;50.860;19.226;2023-05-02T01:54:15;98487.94;;;7.82;73.15
58018;BME280;43810;50.860;19.226;2023-05-02T01:56:42;98479.22;;;7.81;73.10
58018;BME280;43810;50.860;19.226;2023-05-02T01:59:12;98483.44;;;7.82;72.87
58018;BME280;43810;50.860;19.226;2023-05-02T02:01:39;98473.81;;;7.78;73.66
58018;BME280;43810;50.860;19.226;2023-05-02T02:04:08;98475.19;;;7.75;73.53
58018;BME280;43810;50.860;19.226;2023-05-02T02:06:34;98471.28;;;7.81;73.59
58018;BME280;43810;50.860;19.226;2023-05-02T02:09:00;98470.50;;;7.81;73.42
58018;BME280;43810;50.860;19.226;2023-05-02T02:11:46;98473.31;;;7.84;73.55
58018;BME280;43810;50.860;19.226;2023-05-02T02:14:24;98471.47;;;7.85;73.59
58018;BME280;43810;50.860;19.226;2023-05-02T02:16:54;98466.47;;;7.83;73.83
58018;BME280;43810;50.860;19.226;2023-05-02T02:19:21;98473.63;;;7.83;74.27
58018;BME280;43810;50.860;19.226;2023-05-02T02:21:49;98468.03;;;7.84;74.42
58018;BME280;43810;50.860;19.226;2023-05-02T02:24:16;98471.16;;;7.86;74.54
58018;BME280;43810;50.860;19.226;2023-05-02T02:26:43;98466.50;;;7.92;74.75
58018;BME280;43810;50.860;19.226;2023-05-02T02:29:09;98465.84;;;7.95;75.17
58018;BME280;43810;50.860;19.226;2023-05-02T02:31:35;98471.75;;;8.01;74.66
58018;BME280;43810;50.860;19.226;2023-05-02T02:34:03;98468.31;;;8.09;74.85
58018;BME280;43810;50.860;19.226;2023-05-02T02:36:42;98469.38;;;8.16;74.38
58018;BME280;43810;50.860;19.226;2023-05-02T02:41:52;98467.59;;;8.55;73.66
58018;BME280;43810;50.860;19.226;2023-05-02T02:44:42;98472.19;;;8.75;73.45
58018;BME280;43810;50.860;19.226;2023-05-02T02:49:49;98471.13;;;9.56;72.50
58018;BME280;43810;50.860;19.226;2023-05-02T02:52:23;98472.06;;;9.93;71.69
58018;BME280;43810;50.860;19.226;2023-05-02T02:54:58;98477.84;;;10.28;70.63
58018;BME280;43810;50.860;19.226;2023-05-02T02:57:52;98458.22;;;10.65;68.86
58018;BME280;43810;50.860;19.226;2023-05-02T03:00:19;98465.19;;;10.82;68.46
58018;BME280;43810;50.860;19.226;2023-05-02T03:02:47;98469.06;;;10.97;67.91
58018;BME280;43810;50.860;19.226;2023-05-02T03:05:13;98469.72;;;11.06;67.26
58018;BME280;43810;50.860;19.226;2023-05-02T03:07:40;98469.09;;;11.21;66.42
58018;BME280;43810;50.860;19.226;2023-05-02T03:10:07;98467.06;;;11.30;66.07
58018;BME280;43810;50.860;19.226;2023-05-02T03:12:33;98468.16;;;11.41;65.24
58018;BME280;43810;50.860;19.226;2023-05-02T03:17:51;98461.34;;;11.68;64.63
58018;BME280;43810;50.860;19.226;2023-05-02T03:20:16;98464.75;;;11.81;63.84
58018;BME280;43810;50.860;19.226;2023-05-02T03:22:42;98467.97;;;12.02;63.79
58018;BME280;43810;50.860;19.226;2023-05-02T03:25:08;98474.19;;;12.06;63.57
58018;BME280;43810;50.860;19.226;2023-05-02T03:27:34;98466.38;;;12.13;62.87
58018;BME280;43810;50.860;19.226;2023-05-02T03:30:00;98469.66;;;12.22;62.59
58018;BME280;43810;50.860;19.226;2023-05-02T03:32:26;98475.94;;;12.30;61.40
58018;BME280;43810;50.860;19.226;2023-05-02T03:34:52;98468.03;;;12.34;61.37
58018;BME280;43810;50.860;19.226;2023-05-02T03:37:23;98474.66;;;12.40;61.74
58018;BME280;43810;50.860;19.226;2023-05-02T03:39:49;98473.13;;;12.39;61.10
58018;BME280;43810;50.860;19.226;2023-05-02T03:42:15;98480.00;;;12.40;61.32
58018;BME280;43810;50.860;19.226;2023-05-02T03:44:41;98469.28;;;12.52;60.79
58018;BME280;43810;50.860;19.226;2023-05-02T03:47:07;98477.16;;;12.48;60.78
58018;BME280;43810;50.860;19.226;2023-05-02T03:49:33;98477.28;;;12.52;59.89
58018;BME280;43810;50.860;19.226;2023-05-02T03:52:00;98473.66;;;12.60;59.61
58018;BME280;43810;50.860;19.226;2023-05-02T03:54:26;98474.34;;;12.73;59.28
58018;BME280;43810;50.860;19.226;2023-05-02T03:56:53;98468.47;;;12.67;58.61
58018;BME280;43810;50.860;19.226;2023-05-02T03:59:19;98473.56;;;12.72;58.87
58018;BME280;43810;50.860;19.226;2023-05-02T04:01:48;98470.81;;;12.69;59.16
58018;BME280;43810;50.860;19.226;2023-05-02T04:04:14;98473.00;;;12.79;58.18
58018;BME280;43810;50.860;19.226;2023-05-02T04:06:41;98472.22;;;12.78;58.20
58018;BME280;43810;50.860;19.226;2023-05-02T04:09:07;98477.97;;;12.65;58.20
58018;BME280;43810;50.860;19.226;2023-05-02T04:11:33;98479.69;;;12.73;58.46
58018;BME280;43810;50.860;19.226;2023-05-02T04:13:58;98473.31;;;12.77;58.17
58018;BME280;43810;50.860;19.226;2023-05-02T04:16:25;98484.28;;;12.88;57.10
58018;BME280;43810;50.860;19.226;2023-05-02T04:18:51;98482.25;;;13.01;57.25
58018;BME280;43810;50.860;19.226;2023-05-02T04:21:18;98479.09;;;13.11;56.71
58018;BME280;43810;50.860;19.226;2023-05-02T04:23:43;98480.34;;;13.17;56.96
58018;BME280;43810;50.860;19.226;2023-05-02T04:26:09;98481.78;;;13.30;55.24
58018;BME280;43810;50.860;19.226;2023-05-02T04:28:35;98482.66;;;13.34;56.59
58018;BME280;43810;50.860;19.226;2023-05-02T04:31:01;98492.78;;;13.44;54.90
58018;BME280;43810;50.860;19.226;2023-05-02T04:33:28;98495.25;;;13.53;55.62
58018;BME280;43810;50.860;19.226;2023-05-02T04:35:55;98495.91;;;13.65;54.35
58018;BME280;43810;50.860;19.226;2023-05-02T04:38:21;98488.59;;;13.62;54.65
58018;BME280;43810;50.860;19.226;2023-05-02T04:40:49;98491.78;;;13.68;54.30
58018;BME280;43810;50.860;19.226;2023-05-02T04:43:16;98497.72;;;13.81;53.19
58018;BME280;43810;50.860;19.226;2023-05-02T04:45:42;98486.66;;;13.79;54.78
58018;BME280;43810;50.860;19.226;2023-05-02T04:48:08;98487.56;;;13.86;54.28
58018;BME280;43810;50.860;19.226;2023-05-02T04:50:34;98501.00;;;13.90;53.95
58018;BME280;43810;50.860;19.226;2023-05-02T04:53:00;98494.38;;;14.03;52.92
58018;BME280;43810;50.860;19.226;2023-05-02T04:55:26;98500.50;;;14.23;52.43
58018;BME280;43810;50.860;19.226;2023-05-02T04:57:52;98495.28;;;14.30;52.65
58018;BME280;43810;50.860;19.226;2023-05-02T05:00:18;98511.38;;;14.33;53.25
58018;BME280;43810;50.860;19.226;2023-05-02T05:02:44;98500.78;;;14.37;52.07
58018;BME280;43810;50.860;19.226;2023-05-02T05:05:10;98512.16;;;14.34;53.12
58018;BME280;43810;50.860;19.226;2023-05-02T05:07:36;98509.41;;;14.30;53.55
58018;BME280;43810;50.860;19.226;2023-05-02T05:10:02;98517.16;;;14.35;52.80
58018;BME280;43810;50.860;19.226;2023-05-02T05:12:28;98515.59;;;14.34;52.26
58018;BME280;43810;50.860;19.226;2023-05-02T05:14:54;98523.06;;;14.25;53.70
58018;BME280;43810;50.860;19.226;2023-05-02T05:17:19;98521.66;;;14.31;53.68
58018;BME280;43810;50.860;19.226;2023-05-02T05:19:46;98530.47;;;14.55;53.51
58018;BME280;43810;50.860;19.226;2023-05-02T05:22:11;98525.13;;;14.55;52.96
58018;BME280;43810;50.860;19.226;2023-05-02T05:24:41;98528.94;;;14.54;53.57
58018;BME280;43810;50.860;19.226;2023-05-02T05:27:06;98528.41;;;14.45;54.47
58018;BME280;43810;50.860;19.226;2023-05-02T05:29:32;98519.09;;;14.58;53.67
58018;BME280;43810;50.860;19.226;2023-05-02T05:31:58;98526.78;;;14.63;53.02
58018;BME280;43810;50.860;19.226;2023-05-02T05:34:24;98530.84;;;14.76;53.07
58018;BME280;43810;50.860;19.226;2023-05-02T05:36:50;98529.53;;;14.89;51.76
58018;BME280;43810;50.860;19.226;2023-05-02T05:39:17;98542.31;;;14.99;51.10
58018;BME280;43810;50.860;19.226;2023-05-02T05:41:43;98541.19;;;15.00;53.00
58018;BME280;43810;50.860;19.226;2023-05-02T05:44:09;98540.47;;;15.26;52.13
58018;BME280;43810;50.860;19.226;2023-05-02T05:46:34;98541.16;;;15.46;51.55
58018;BME280;43810;50.860;19.226;2023-05-02T05:49:00;98541.88;;;15.43;51.60
58018;BME280;43810;50.860;19.226;2023-05-02T05:51:26;98529.69;;;15.45;51.56
58018;BME280;43810;50.860;19.226;2023-05-02T05:53:52;98537.06;;;15.52;50.17
58018;BME280;43810;50.860;19.226;2023-05-02T05:56:18;98543.28;;;15.60;50.56
58018;BME280;43810;50.860;19.226;2023-05-02T05:58:44;98540.22;;;15.88;51.06
58018;BME280;43810;50.860;19.226;2023-05-02T06:01:10;98547.00;;;16.11;50.30
58018;BME280;43810;50.860;19.226;2023-05-02T06:03:36;98543.16;;;16.42;48.70
58018;BME280;43810;50.860;19.226;2023-05-02T06:06:02;98548.44;;;16.69;48.41
58018;BME280;43810;50.860;19.226;2023-05-02T06:08:28;98552.09;;;16.94;47.48
58018;BME280;43810;50.860;19.226;2023-05-02T06:14:27;98560.31;;;17.12;49.32
58018;BME280;43810;50.860;19.226;2023-05-02T06:16:52;98562.63;;;17.13;49.89
58018;BME280;43810;50.860;19.226;2023-05-02T06:19:18;98563.19;;;17.37;47.73
58018;BME280;43810;50.860;19.226;2023-05-02T06:21:44;98557.56;;;17.56;48.22
58018;BME280;43810;50.860;19.226;2023-05-02T06:24:10;98569.22;;;17.78;47.56
58018;BME280;43810;50.860;19.226;2023-05-02T06:26:35;98569.69;;;17.97;46.19
58018;BME280;43810;50.860;19.226;2023-05-02T06:29:01;98574.44;;;18.18;45.31
58018;BME280;43810;50.860;19.226;2023-05-02T06:31:28;98574.09;;;18.34;44.25
58018;BME280;43810;50.860;19.226;2023-05-02T06:33:53;98569.81;;;18.22;44.18
58018;BME280;43810;50.860;19.226;2023-05-02T06:36:19;98575.19;;;18.19;43.94
58018;BME280;43810;50.860;19.226;2023-05-02T06:38:46;98582.16;;;18.34;44.60
58018;BME280;43810;50.860;19.226;2023-05-02T06:41:12;98576.03;;;18.41;44.31
58018;BME280;43810;50.860;19.226;2023-05-02T06:43:41;98569.94;;;18.61;43.07
58018;BME280;43810;50.860;19.226;2023-05-02T06:46:10;98568.09;;;18.76;43.62
58018;BME280;43810;50.860;19.226;2023-05-02T06:48:36;98565.00;;;18.78;43.89
58018;BME280;43810;50.860;19.226;2023-05-02T06:51:02;98576.94;;;18.77;44.43
58018;BME280;43810;50.860;19.226;2023-05-02T06:53:29;98575.00;;;18.84;43.39
58018;BME280;43810;50.860;19.226;2023-05-02T06:55:55;98568.84;;;18.80;45.21
58018;BME280;43810;50.860;19.226;2023-05-02T06:58:22;98579.25;;;18.96;44.20
58018;BME280;43810;50.860;19.226;2023-05-02T07:00:48;98577.72;;;19.23;45.48
58018;BME280;43810;50.860;19.226;2023-05-02T07:03:15;98585.44;;;19.42;44.55
58018;BME280;43810;50.860;19.226;2023-05-02T07:05:41;98589.25;;;19.56;43.62
58018;BME280;43810;50.860;19.226;2023-05-02T07:08:07;98595.38;;;19.81;43.79
58018;BME280;43810;50.860;19.226;2023-05-02T07:10:33;98585.00;;;19.90;44.05
58018;BME280;43810;50.860;19.226;2023-05-02T07:12:59;98595.78;;;19.90;43.47
58018;BME280;43810;50.860;19.226;2023-05-02T07:15:25;98605.41;;;19.84;44.32
58018;BME280;43810;50.860;19.226;2023-05-02T07:17:51;98605.41;;;19.84;44.63
58018;BME280;43810;50.860;19.226;2023-05-02T07:20:16;98607.38;;;19.66;44.84
58018;BME280;43810;50.860;19.226;2023-05-02T07:22:43;98605.81;;;19.75;44.63
58018;BME280;43810;50.860;19.226;2023-05-02T07:25:08;98612.00;;;19.62;44.88
58018;BME280;43810;50.860;19.226;2023-05-02T07:27:35;98623.13;;;19.46;44.23
58018;BME280;43810;50.860;19.226;2023-05-02T07:30:01;98627.00;;;19.31;45.63
58018;BME280;43810;50.860;19.226;2023-05-02T07:32:27;98634.63;;;18.93;47.50
58018;BME280;43810;50.860;19.226;2023-05-02T07:34:53;98634.25;;;18.88;47.34
58018;BME280;43810;50.860;19.226;2023-05-02T07:37:19;98636.16;;;18.87;47.78
58018;BME280;43810;50.860;19.226;2023-05-02T07:39:45;98639.25;;;18.93;48.35
58018;BME280;43810;50.860;19.226;2023-05-02T07:42:11;98637.75;;;19.27;47.47
58018;BME280;43810;50.860;19.226;2023-05-02T07:44:37;98644.69;;;19.71;47.38
58018;BME280;43810;50.860;19.226;2023-05-02T07:47:03;98640.81;;;19.97;45.89
58018;BME280;43810;50.860;19.226;2023-05-02T07:49:29;98645.81;;;20.12;45.69
58018;BME280;43810;50.860;19.226;2023-05-02T07:51:56;98652.34;;;20.11;46.69
58018;BME280;43810;50.860;19.226;2023-05-02T07:54:22;98656.09;;;20.39;45.92
58018;BME280;43810;50.860;19.226;2023-05-02T07:56:50;98655.25;;;20.70;44.51
58018;BME280;43810;50.860;19.226;2023-05-02T07:59:16;98653.59;;;20.91;44.13
58018;BME280;43810;50.860;19.226;2023-05-02T08:01:42;98650.19;;;20.79;44.88
58018;BME280;43810;50.860;19.226;2023-05-02T08:04:08;98655.31;;;20.56;42.97
58018;BME280;43810;50.860;19.226;2023-05-02T08:06:36;98656.94;;;20.18;43.99
58018;BME280;43810;50.860;19.226;2023-05-02T08:09:02;98673.16;;;20.07;45.23
58018;BME280;43810;50.860;19.226;2023-05-02T08:11:28;98663.88;;;20.23;46.37
58018;BME280;43810;50.860;19.226;2023-05-02T08:13:54;98675.09;;;19.96;46.05
58018;BME280;43810;50.860;19.226;2023-05-02T08:16:20;98672.41;;;19.46;47.50
58018;BME280;43810;50.860;19.226;2023-05-02T08:18:46;98665.47;;;19.21;48.76
58018;BME280;43810;50.860;19.226;2023-05-02T08:21:12;98670.78;;;18.96;48.84
58018;BME280;43810;50.860;19.226;2023-05-02T08:23:40;98673.06;;;18.76;49.45
58018;BME280;43810;50.860;19.226;2023-05-02T08:26:06;98678.84;;;18.89;50.18
58018;BME280;43810;50.860;19.226;2023-05-02T08:28:32;98682.78;;;19.27;48.91
58018;BME280;43810;50.860;19.226;2023-05-02T08:30:58;98692.03;;;19.51;48.50
58018;BME280;43810;50.860;19.226;2023-05-02T08:33:24;98681.66;;;19.85;49.75
58018;BME280;43810;50.860;19.226;2023-05-02T08:35:49;98695.50;;;20.26;49.43
58018;BME280;43810;50.860;19.226;2023-05-02T08:38:16;98696.59;;;20.39;49.10
58018;BME280;43810;50.860;19.226;2023-05-02T08:40:42;98692.78;;;20.18;47.72
58018;BME280;43810;50.860;19.226;2023-05-02T08:43:09;98693.22;;;20.03;48.51
58018;BME280;43810;50.860;19.226;2023-05-02T08:45:41;98701.69;;;20.01;49.25
58018;BME280;43810;50.860;19.226;2023-05-02T08:48:08;98700.88;;;20.26;48.66
58018;BME280;43810;50.860;19.226;2023-05-02T08:50:37;98700.84;;;20.33;48.81
58018;BME280;43810;50.860;19.226;2023-05-02T08:53:04;98701.66;;;20.15;48.45
58018;BME280;43810;50.860;19.226;2023-05-02T08:55:32;98697.06;;;19.88;49.38
58018;BME280;43810;50.860;19.226;2023-05-02T08:57:58;98700.16;;;19.58;51.03
58018;BME280;43810;50.860;19.226;2023-05-02T09:00:26;98707.06;;;19.55;49.82
58018;BME280;43810;50.860;19.226;2023-05-02T09:03:08;98712.09;;;19.74;49.18
58018;BME280;43810;50.860;19.226;2023-05-02T09:05:40;98703.25;;;19.74;49.25
58018;BME280;43810;50.860;19.226;2023-05-02T09:08:06;98711.31;;;19.60;48.39
58018;BME280;43810;50.860;19.226;2023-05-02T09:10:35;98710.91;;;19.54;49.78
58018;BME280;43810;50.860;19.226;2023-05-02T09:13:27;98707.03;;;19.41;48.71
58018;BME280;43810;50.860;19.226;2023-05-02T09:16:24;98717.75;;;19.13;48.84
58018;BME280;43810;50.860;19.226;2023-05-02T09:18:56;98717.38;;;19.11;50.58
58018;BME280;43810;50.860;19.226;2023-05-02T09:21:34;98715.03;;;18.95;50.26
58018;BME280;43810;50.860;19.226;2023-05-02T09:24:01;98720.69;;;18.68;51.29
58018;BME280;43810;50.860;19.226;2023-05-02T09:26:38;98722.28;;;18.80;52.04
58018;BME280;43810;50.860;19.226;2023-05-02T09:29:04;98722.34;;;19.05;51.03
58018;BME280;43810;50.860;19.226;2023-05-02T09:31:33;98726.63;;;19.20;49.88
58018;BME280;43810;50.860;19.226;2023-05-02T09:34:13;98723.19;;;19.30;49.43
58018;BME280;43810;50.860;19.226;2023-05-02T09:36:40;98726.72;;;19.73;50.22
58018;BME280;43810;50.860;19.226;2023-05-02T09:39:15;98741.75;;;20.06;48.75
58018;BME280;43810;50.860;19.226;2023-05-02T09:41:47;98744.78;;;20.44;49.77
58018;BME280;43810;50.860;19.226;2023-05-02T09:44:15;98740.09;;;20.62;50.25
58018;BME280;43810;50.860;19.226;2023-05-02T09:46:45;98749.72;;;20.77;46.35
58018;BME280;43810;50.860;19.226;2023-05-02T09:49:11;98745.13;;;20.64;47.29
58018;BME280;43810;50.860;19.226;2023-05-02T09:51:39;98750.78;;;20.98;49.76
58018;BME280;43810;50.860;19.226;2023-05-02T09:54:05;98755.34;;;21.08;48.34
58018;BME280;43810;50.860;19.226;2023-05-02T09:56:50;98754.63;;;21.07;48.31
58018;BME280;43810;50.860;19.226;2023-05-02T09:59:16;98763.50;;;21.01;48.11
58018;BME280;43810;50.860;19.226;2023-05-02T10:01:56;98761.72;;;20.66;47.72
58018;BME280;43810;50.860;19.226;2023-05-02T10:04:23;98757.88;;;20.52;49.03
58018;BME280;43810;50.860;19.226;2023-05-02T10:06:50;98756.72;;;20.46;48.95
58018;BME280;43810;50.860;19.226;2023-05-02T10:09:18;98766.75;;;20.46;49.60
58018;BME280;43810;50.860;19.226;2023-05-02T10:11:45;98768.66;;;20.63;47.58
58018;BME280;43810;50.860;19.226;2023-05-02T10:14:11;98770.53;;;20.77;47.03
58018;BME280;43810;50.860;19.226;2023-05-02T10:16:46;98767.56;;;20.22;47.41
58018;BME280;43810;50.860;19.226;2023-05-02T10:19:19;98770.25;;;20.00;47.54
58018;BME280;43810;50.860;19.226;2023-05-02T10:21:47;98771.03;;;19.83;49.04
58018;BME280;43810;50.860;19.226;2023-05-02T10:24:13;98771.00;;;20.29;50.37
58018;BME280;43810;50.860;19.226;2023-05-02T10:26:40;98769.25;;;21.10;45.79
58018;BME280;43810;50.860;19.226;2023-05-02T10:29:07;98766.44;;;21.42;45.69
58018;BME280;43810;50.860;19.226;2023-05-02T10:31:33;98764.88;;;21.34;46.77
58018;BME280;43810;50.860;19.226;2023-05-02T10:33:59;98781.31;;;20.91;45.40
58018;BME280;43810;50.860;19.226;2023-05-02T10:36:27;98777.91;;;20.62;48.04
58018;BME280;43810;50.860;19.226;2023-05-02T10:38:53;98783.31;;;20.66;48.14
58018;BME280;43810;50.860;19.226;2023-05-02T10:41:25;98774.81;;;20.64;48.59
58018;BME280;43810;50.860;19.226;2023-05-02T10:43:52;98777.53;;;20.64;46.07
58018;BME280;43810;50.860;19.226;2023-05-02T10:46:34;98775.22;;;20.55;46.76
58018;BME280;43810;50.860;19.226;2023-05-02T10:49:06;98777.16;;;20.44;46.58
58018;BME280;43810;50.860;19.226;2023-05-02T10:51:34;98783.34;;;20.20;47.99
58018;BME280;43810;50.860;19.226;2023-05-02T10:59:32;98783.97;;;19.24;50.38
58018;BME280;43810;50.860;19.226;2023-05-02T11:02:02;98783.16;;;19.13;49.89
58018;BME280;43810;50.860;19.226;2023-05-02T11:07:35;98791.16;;;18.88;50.94
58018;BME280;43810;50.860;19.226;2023-05-02T11:12:48;98798.72;;;18.68;50.11
58018;BME280;43810;50.860;19.226;2023-05-02T11:18:09;98791.47;;;18.76;49.94
58018;BME280;43810;50.860;19.226;2023-05-02T11:20:41;98802.56;;;18.67;50.29
58018;BME280;43810;50.860;19.226;2023-05-02T11:23:28;98808.34;;;18.69;51.22
58018;BME280;43810;50.860;19.226;2023-05-02T11:25:55;98811.06;;;18.73;49.89
58018;BME280;43810;50.860;19.226;2023-05-02T11:31:04;98810.09;;;19.13;48.67
58018;BME280;43810;50.860;19.226;2023-05-02T11:33:31;98816.22;;;18.99;48.43
58018;BME280;43810;50.860;19.226;2023-05-02T11:35:57;98826.56;;;19.01;48.98
58018;BME280;43810;50.860;19.226;2023-05-02T11:38:24;98825.47;;;19.09;48.27
58018;BME280;43810;50.860;19.226;2023-05-02T11:40:57;98830.75;;;18.91;48.24
58018;BME280;43810;50.860;19.226;2023-05-02T11:43:25;98843.00;;;18.75;48.52
58018;BME280;43810;50.860;19.226;2023-05-02T11:45:53;98837.75;;;18.41;48.80
58018;BME280;43810;50.860;19.226;2023-05-02T11:48:21;98840.19;;;18.13;49.11
58018;BME280;43810;50.860;19.226;2023-05-02T11:50:58;98835.81;;;17.94;48.64
58018;BME280;43810;50.860;19.226;2023-05-02T11:53:28;98843.38;;;17.81;49.46
58018;BME280;43810;50.860;19.226;2023-05-02T11:55:55;98836.19;;;17.92;50.73
58018;BME280;43810;50.860;19.226;2023-05-02T11:58:24;98839.78;;;18.11;49.27
58018;BME280;43810;50.860;19.226;2023-05-02T12:00:51;98849.53;;;18.26;48.88
58018;BME280;43810;50.860;19.226;2023-05-02T12:03:29;98848.03;;;18.32;48.82
58018;BME280;43810;50.860;19.226;2023-05-02T12:05:56;98853.75;;;18.27;49.50
58018;BME280;43810;50.860;19.226;2023-05-02T12:08:24;98855.22;;;18.17;49.65
58018;BME280;43810;50.860;19.226;2023-05-02T12:10:52;98865.06;;;18.02;49.91
58018;BME280;43810;50.860;19.226;2023-05-02T12:13:18;98864.34;;;18.06;50.64
58018;BME280;43810;50.860;19.226;2023-05-02T12:15:45;98865.84;;;18.03;51.14
58018;BME280;43810;50.860;19.226;2023-05-02T12:18:12;98855.31;;;17.87;49.52
58018;BME280;43810;50.860;19.226;2023-05-02T12:20:38;98859.09;;;17.79;50.21
58018;BME280;43810;50.860;19.226;2023-05-02T12:23:05;98867.00;;;18.02;51.29
58018;BME280;43810;50.860;19.226;2023-05-02T12:25:36;98874.84;;;18.21;50.31
58018;BME280;43810;50.860;19.226;2023-05-02T12:28:02;98875.22;;;18.67;48.60
58018;BME280;43810;50.860;19.226;2023-05-02T12:30:29;98869.22;;;18.92;47.46
58018;BME280;43810;50.860;19.226;2023-05-02T12:32:56;98872.38;;;19.04;47.39
58018;BME280;43810;50.860;19.226;2023-05-02T12:35:23;98871.16;;;18.88;45.45
58018;BME280;43810;50.860;19.226;2023-05-02T12:37:49;98873.75;;;18.73;45.71
58018;BME280;43810;50.860;19.226;2023-05-02T12:40:15;98869.44;;;18.65;46.18
58018;BME280;43810;50.860;19.226;2023-05-02T12:42:42;98873.91;;;18.47;45.38
58018;BME280;43810;50.860;19.226;2023-05-02T12:45:17;98879.47;;;18.24;47.02
58018;BME280;43810;50.860;19.226;2023-05-02T12:47:44;98864.06;;;18.21;46.83
58018;BME280;43810;50.860;19.226;2023-05-02T12:50:10;98870.31;;;18.29;47.64
58018;BME280;43810;50.860;19.226;2023-05-02T12:52:48;98872.50;;;18.16;47.48
58018;BME280;43810;50.860;19.226;2023-05-02T12:55:22;98872.91;;;18.22;47.63
58018;BME280;43810;50.860;19.226;2023-05-02T12:58:09;98869.06;;;18.63;49.70
58018;BME280;43810;50.860;19.226;2023-05-02T13:00:41;98876.13;;;18.86;48.91
58018;BME280;43810;50.860;19.226;2023-05-02T13:03:08;98867.25;;;18.82;47.00
58018;BME280;43810;50.860;19.226;2023-05-02T13:05:35;98865.00;;;18.91;48.20
58018;BME280;43810;50.860;19.226;2023-05-02T13:08:01;98865.06;;;19.05;47.42
58018;BME280;43810;50.860;19.226;2023-05-02T13:10:27;98868.56;;;19.13;46.76
58018;BME280;43810;50.860;19.226;2023-05-02T13:12:54;98865.00;;;18.91;49.03
58018;BME280;43810;50.860;19.226;2023-05-02T13:15:20;98865.88;;;19.09;47.59
58018;BME280;43810;50.860;19.226;2023-05-02T13:17:46;98865.63;;;19.46;47.88
58018;BME280;43810;50.860;19.226;2023-05-02T13:20:12;98862.31;;;19.77;47.25
58018;BME280;43810;50.860;19.226;2023-05-02T13:22:38;98865.00;;;19.81;47.31
58018;BME280;43810;50.860;19.226;2023-05-02T13:25:05;98879.13;;;19.50;45.71
58018;BME280;43810;50.860;19.226;2023-05-02T13:27:33;98868.16;;;19.07;48.92
58018;BME280;43810;50.860;19.226;2023-05-02T13:29:59;98873.09;;;18.94;49.14
58018;BME280;43810;50.860;19.226;2023-05-02T13:32:26;98883.00;;;18.80;47.32
58018;BME280;43810;50.860;19.226;2023-05-02T13:34:53;98873.34;;;18.71;47.71